Time;durP1;ratioP1;P1;durP2;ratioP2;P2;SDS_P1;SDS_P2;PMS_P1;PMS_P2;Temp;Humidity;BMP_temperature;BMP_pressure;BME280_temperature;BME280_humidity;BME280_pressure;Samples;Min_cycle;Max_cycle;Signal;HPM_P1;HPM_P2
2023/01/20 00:01:20;;;;;;;21.05;19.45;;;1.20;99.90;;;;;;5210546;22;20035;-90
2023/01/20 00:03:41;;;;;;;22.13;20.23;;;1.10;99.90;;;;;;5187697;22;20062;-90
2023/01/20 00:06:01;;;;;;;24.55;22.73;;;1.20;99.90;;;;;;5200780;22;20043;-90
2023/01/20 00:08:21;;;;;;;23.52;21.45;;;1.20;99.90;;;;;;5202778;22;20258;-90
2023/01/20 00:10:41;;;;;;;25.67;23.15;;;1.10;99.90;;;;;;5223274;22;20341;-90
2023/01/20 00:13:01;;;;;;;26.55;24.08;;;1.00;99.90;;;;;;5226361;22;20023;-89
2023/01/20 00:15:21;;;;;;;27.80;24.77;;;1.00;99.90;;;;;;5219171;22;20110;-89
2023/01/20 00:17:41;;;;;;;26.50;24.13;;;1.00;99.90;;;;;;5205870;22;20034;-90
2023/01/20 00:20:03;;;;;;;28.77;25.95;;;1.00;99.90;;;;;;5226426;22;20364;-90
2023/01/20 00:22:23;;;;;;;25.45;23.30;;;1.00;99.90;;;;;;5224140;22;20058;-90
2023/01/20 00:24:43;;;;;;;27.35;24.75;;;0.90;99.90;;;;;;5219221;22;20023;-90
2023/01/20 00:27:03;;;;;;;36.58;33.47;;;0.90;99.90;;;;;;5213418;22;20266;-90
2023/01/20 00:29:22;;;;;;;38.20;35.35;;;0.90;99.90;;;;;;5220964;22;20050;-91
2023/01/20 00:31:42;;;;;;;36.80;33.83;;;0.90;99.90;;;;;;5211387;22;20069;-90
2023/01/20 00:34:02;;;;;;;41.63;38.45;;;0.90;99.90;;;;;;5214455;22;20023;-90
2023/01/20 00:36:24;;;;;;;41.05;37.80;;;0.90;99.90;;;;;;5224286;22;20329;-89
2023/01/20 00:38:44;;;;;;;41.70;38.72;;;0.90;99.90;;;;;;5232806;22;20041;-90
2023/01/20 00:41:06;;;;;;;41.33;38.45;;;0.90;99.90;;;;;;5209257;22;20100;-90
2023/01/20 00:43:26;;;;;;;38.28;35.45;;;0.90;99.90;;;;;;5219442;22;20026;-90
2023/01/20 00:45:46;;;;;;;34.17;31.83;;;1.00;99.90;;;;;;5224421;22;20046;-90
2023/01/20 00:48:06;;;;;;;26.60;24.45;;;1.00;99.90;;;;;;5209207;22;20058;-90
2023/01/20 00:50:26;;;;;;;25.77;23.48;;;1.20;99.90;;;;;;5230616;22;20025;-91
2023/01/20 00:52:46;;;;;;;25.05;22.75;;;1.10;99.90;;;;;;5205943;22;20119;-89
2023/01/20 00:55:06;;;;;;;24.60;22.25;;;1.00;99.90;;;;;;5209159;22;20026;-90
2023/01/20 00:57:26;;;;;;;25.52;22.98;;;1.00;99.90;;;;;;5234301;22;20371;-90
2023/01/20 00:59:46;;;;;;;28.02;25.23;;;0.90;99.90;;;;;;5227369;22;20053;-89
2023/01/20 01:02:06;;;;;;;27.52;24.83;;;0.90;99.90;;;;;;5204018;22;20031;-91
2023/01/20 01:04:25;;;;;;;30.73;28.10;;;1.00;99.90;;;;;;5210259;22;20026;-91
2023/01/20 01:06:45;;;;;;;31.60;28.60;;;0.90;99.90;;;;;;5210212;22;20041;-90
2023/01/20 01:09:05;;;;;;;36.30;33.15;;;1.00;99.90;;;;;;5187914;22;20054;-90
2023/01/20 01:11:25;;;;;;;41.95;38.30;;;1.00;99.90;;;;;;5202099;22;20223;-90
2023/01/20 01:13:45;;;;;;;64.55;41.72;;;1.00;99.90;;;;;;5201108;22;20086;-90
2023/01/20 01:16:15;;;;;;;54.03;45.08;;;1.00;99.90;;;;;;5224163;22;20211;-89
2023/01/20 01:18:35;;;;;;;58.25;45.45;;;0.90;99.90;;;;;;5232679;22;20065;-90
2023/01/20 01:20:57;;;;;;;50.47;45.83;;;0.90;99.90;;;;;;5224008;22;20026;-90
2023/01/20 01:23:17;;;;;;;67.38;48.60;;;0.80;99.90;;;;;;5224051;22;20034;-89
2023/01/20 01:25:37;;;;;;;50.47;46.13;;;0.80;99.90;;;;;;5226132;22;20022;-90
2023/01/20 01:27:57;;;;;;;48.67;44.40;;;0.80;99.90;;;;;;5220020;22;20023;-91
2023/01/20 01:30:17;;;;;;;48.88;44.70;;;0.80;99.90;;;;;;5222726;22;20035;-90
2023/01/20 01:32:37;;;;;;;43.72;40.08;;;0.80;99.90;;;;;;5197341;22;20023;-90
2023/01/20 01:34:57;;;;;;;48.55;44.17;;;0.80;99.90;;;;;;5204255;22;20106;-90
2023/01/20 01:37:17;;;;;;;49.80;45.08;;;0.80;99.90;;;;;;5215769;22;20022;-90
2023/01/20 01:39:36;;;;;;;46.78;42.40;;;0.80;99.90;;;;;;5226752;22;20026;-90
2023/01/20 01:41:56;;;;;;;46.22;42.50;;;0.80;99.90;;;;;;5232658;22;20098;-90
2023/01/20 01:44:16;;;;;;;44.30;40.30;;;0.80;99.90;;;;;;5223876;22;20021;-91
2023/01/20 01:46:37;;;;;;;46.35;42.33;;;0.80;99.90;;;;;;5211780;22;20035;-91
2023/01/20 01:49:00;;;;;;;45.38;41.25;;;0.80;99.90;;;;;;5222525;22;20026;-91
2023/01/20 01:51:30;;;;;;;38.55;34.80;;;0.90;99.90;;;;;;5222226;22;20226;-91
2023/01/20 01:54:04;;;;;;;28.42;25.60;;;0.90;99.90;;;;;;5200347;22;20027;-90
2023/01/20 01:56:27;;;;;;;59.03;36.45;;;0.90;99.90;;;;;;5179999;22;20346;-90
2023/01/20 01:58:50;;;;;;;49.13;42.05;;;0.80;99.90;;;;;;5203191;22;20368;-90
2023/01/20 02:01:10;;;;;;;45.53;40.70;;;0.70;99.90;;;;;;5234335;22;20053;-91
2023/01/20 02:03:54;;;;;;;47.33;42.65;;;0.70;99.90;;;;;;5223885;22;20176;-90
2023/01/20 02:06:15;;;;;;;44.10;39.70;;;0.60;99.90;;;;;;5225834;22;20432;-90
2023/01/20 02:08:35;;;;;;;44.42;39.67;;;0.70;99.90;;;;;;5224006;22;20273;-90
2023/01/20 02:10:56;;;;;;;44.40;40.20;;;0.70;99.90;;;;;;5223913;22;20022;-89
2023/01/20 02:13:15;;;;;;;43.85;39.83;;;0.70;99.90;;;;;;5205557;22;20050;-90
2023/01/20 02:16:03;;;;;;;41.53;37.28;;;0.70;99.90;;;;;;5205692;22;20022;-90
2023/01/20 02:18:38;;;;;;;34.58;30.85;;;0.60;99.90;;;;;;5224687;22;20022;-91
2023/01/20 02:21:07;;;;;;;33.50;29.40;;;0.70;99.90;;;;;;5202262;22;20026;-90
2023/01/20 02:24:02;;;;;;;32.10;28.58;;;0.80;99.90;;;;;;5180362;22;20066;-90
2023/01/20 02:27:03;;;;;;;35.60;27.42;;;0.80;99.90;;;;;;5197787;22;20045;-90
2023/01/20 02:29:41;;;;;;;30.70;26.02;;;0.80;99.90;;;;;;5121888;23;20336;-91
2023/01/20 02:32:16;;;;;;;35.80;27.70;;;0.90;99.90;;;;;;5103340;23;20090;-90
2023/01/20 02:34:43;;;;;;;31.08;27.88;;;0.90;99.90;;;;;;5103262;23;20056;-91
2023/01/20 02:37:17;;;;;;;25.35;22.75;;;0.80;99.90;;;;;;5124078;23;20358;-91
2023/01/20 02:39:52;;;;;;;26.98;24.23;;;0.80;99.90;;;;;;5124096;23;20108;-91
2023/01/20 02:42:21;;;;;;;24.48;21.90;;;0.90;99.90;;;;;;5132314;23;20048;-91
2023/01/20 02:44:53;;;;;;;26.48;23.73;;;0.90;99.90;;;;;;5124154;23;20027;-90
2023/01/20 02:47:27;;;;;;;28.73;25.65;;;0.70;99.90;;;;;;5132355;23;20031;-90
2023/01/20 02:50:08;;;;;;;27.77;25.02;;;0.80;99.90;;;;;;5111240;23;20128;-90
2023/01/20 02:52:35;;;;;;;30.08;27.45;;;0.80;99.90;;;;;;5111352;23;20084;-90
2023/01/20 02:54:59;;;;;;;38.17;35.08;;;0.80;99.90;;;;;;5123996;23;20340;-91
2023/01/20 02:57:31;;;;;;;39.53;36.28;;;0.70;99.90;;;;;;5123912;23;20236;-90
2023/01/20 03:00:00;;;;;;;34.65;31.42;;;0.70;99.90;;;;;;5124050;23;20027;-90
2023/01/20 03:02:25;;;;;;;32.42;29.55;;;0.80;99.90;;;;;;5137586;22;20071;-91
2023/01/20 03:05:14;;;;;;;29.27;26.48;;;0.80;99.90;;;;;;5221171;22;20076;-90
2023/01/20 03:07:38;;;;;;;26.13;23.40;;;0.80;99.90;;;;;;5203261;22;20211;-91
2023/01/20 03:09:59;;;;;;;;;;;0.80;99.90;;;;;;5207281;22;20030;-90
2023/01/20 03:12:25;;;;;;;23.33;20.92;;;0.80;99.90;;;;;;5200028;22;19925;-90
2023/01/20 03:14:45;;;;;;;25.08;22.77;;;0.80;99.90;;;;;;5203823;22;20365;-91
2023/01/20 03:17:05;;;;;;;27.65;23.77;;;0.80;99.90;;;;;;5227786;22;20337;-91
2023/01/20 03:19:25;;;;;;;25.88;22.33;;;0.80;99.90;;;;;;5234159;22;20054;-90
2023/01/20 03:21:46;;;;;;;25.65;23.25;;;0.80;99.90;;;;;;5188099;22;20050;-90
2023/01/20 03:24:06;;;;;;;32.28;29.38;;;0.70;99.90;;;;;;5210553;22;20054;-90
2023/01/20 03:26:26;;;;;;;36.85;33.97;;;0.60;99.90;;;;;;5201526;22;20393;-89
2023/01/20 03:28:47;;;;;;;34.13;31.73;;;0.50;99.90;;;;;;5224571;22;20069;-90
2023/01/20 03:31:18;;;;;;;40.42;37.50;;;0.50;99.90;;;;;;5224493;22;20022;-90
2023/01/20 03:33:38;;;;;;;31.65;29.75;;;0.50;99.90;;;;;;5224464;22;20337;-90
2023/01/20 03:35:59;;;;;;;30.92;29.15;;;0.50;99.90;;;;;;5209520;22;20023;-91
2023/01/20 03:38:19;;;;;;;28.27;26.58;;;0.60;99.90;;;;;;5197778;22;20250;-90
2023/01/20 03:40:48;;;;;;;22.25;20.83;;;0.60;99.90;;;;;;5212469;22;20090;-90
2023/01/20 03:43:21;;;;;;;28.10;26.60;;;0.60;99.90;;;;;;5206240;22;20034;-90
2023/01/20 03:45:50;;;;;;;32.85;31.08;;;0.50;99.90;;;;;;5227690;22;20022;-91
2023/01/20 03:48:28;;;;;;;34.90;33.13;;;0.50;99.90;;;;;;5224525;22;20206;-90
2023/01/20 03:50:55;;;;;;;34.15;32.35;;;0.60;99.90;;;;;;5201020;22;20025;-90
2023/01/20 03:53:37;;;;;;;32.78;31.25;;;0.50;99.90;;;;;;5200864;22;20023;-89
2023/01/20 03:56:39;;;;;;;34.05;31.98;;;0.50;99.90;;;;;;5214785;22;20026;-90
2023/01/20 03:59:01;;;;;;;35.17;33.08;;;0.50;99.90;;;;;;5217386;22;20026;-90
2023/01/20 04:01:28;;;;;;;65.28;38.25;;;0.50;99.90;;;;;;5219957;22;20283;-90
2023/01/20 04:03:52;;;;;;;41.53;38.63;;;0.30;99.90;;;;;;5206101;22;20080;-91
2023/01/20 04:06:15;;;;;;;42.03;38.72;;;0.40;99.90;;;;;;5231016;22;20240;-90
2023/01/20 04:08:40;;;;;;;37.13;34.00;;;0.40;99.90;;;;;;5233041;22;20081;-89
2023/01/20 04:11:02;;;;;;;40.05;36.90;;;0.50;99.90;;;;;;5236131;22;20026;-90
2023/01/20 04:13:22;;;;;;;41.90;38.60;;;0.50;99.90;;;;;;5226268;22;20030;-90
2023/01/20 04:15:44;;;;;;;44.17;39.95;;;0.50;99.90;;;;;;5210430;22;20274;-90
2023/01/20 04:18:15;;;;;;;43.05;39.58;;;0.50;99.90;;;;;;5187464;22;20031;-90
2023/01/20 04:20:35;;;;;;;42.53;38.58;;;0.40;99.90;;;;;;5213140;22;20026;-90
2023/01/20 04:22:57;;;;;;;42.75;39.13;;;0.50;99.90;;;;;;5219356;22;20338;-91
2023/01/20 04:25:20;;;;;;;44.70;41.03;;;0.40;99.90;;;;;;5207372;22;20025;-90
2023/01/20 04:27:40;;;;;;;45.95;41.25;;;0.40;99.90;;;;;;5206043;22;20076;-90
2023/01/20 04:30:00;;;;;;;55.47;42.10;;;0.30;99.90;;;;;;5218613;22;20022;-89
2023/01/20 04:32:20;;;;;;;45.90;41.00;;;0.30;99.90;;;;;;5224377;22;20026;-91
2023/01/20 04:34:39;;;;;;;59.88;39.83;;;0.30;99.90;;;;;;5232865;22;20060;-90
2023/01/20 04:36:59;;;;;;;57.63;40.58;;;0.30;99.90;;;;;;5224154;22;20090;-90
2023/01/20 04:39:19;;;;;;;187.02;44.35;;;0.30;99.90;;;;;;5219481;22;20075;-90
2023/01/20 04:41:39;;;;;;;48.75;38.47;;;0.20;99.90;;;;;;5214975;22;20360;-90
2023/01/20 04:43:59;;;;;;;41.20;38.25;;;0.20;99.90;;;;;;5224133;22;20113;-90
2023/01/20 04:46:18;;;;;;;39.58;36.72;;;0.30;99.90;;;;;;5224224;22;20022;-89
2023/01/20 04:48:39;;;;;;;40.70;37.10;;;0.30;99.90;;;;;;5200678;22;20075;-90
2023/01/20 04:51:03;;;;;;;44.22;36.25;;;0.30;99.90;;;;;;5227721;22;20026;-89
2023/01/20 04:53:23;;;;;;;27.60;24.15;;;0.30;99.90;;;;;;5203720;22;20023;-89
2023/01/20 04:55:43;;;;;;;35.33;32.63;;;0.40;99.90;;;;;;5221122;22;20229;-90
2023/01/20 04:58:03;;;;;;;33.70;31.00;;;0.30;99.90;;;;;;5232674;22;20022;-90
2023/01/20 05:00:23;;;;;;;33.55;31.13;;;0.40;99.90;;;;;;5209179;22;20114;-90
2023/01/20 05:02:43;;;;;;;147.77;39.08;;;0.30;99.90;;;;;;5234015;22;20339;-90
2023/01/20 05:05:04;;;;;;;39.53;36.33;;;0.30;99.90;;;;;;5222293;22;20234;-90
2023/01/20 05:07:24;;;;;;;83.43;39.95;;;0.30;99.90;;;;;;5222220;22;20056;-90
2023/01/20 05:09:43;;;;;;;63.72;37.25;;;0.30;99.90;;;;;;5201697;22;20035;-90
2023/01/20 05:12:04;;;;;;;65.40;39.67;;;0.30;99.90;;;;;;5200499;22;20022;-89
2023/01/20 05:14:24;;;;;;;51.63;37.95;;;0.20;99.90;;;;;;5187794;22;20027;-90
2023/01/20 05:16:45;;;;;;;40.95;36.78;;;0.20;99.90;;;;;;5232763;22;20030;-90
2023/01/20 05:19:05;;;;;;;146.00;41.20;;;0.20;99.90;;;;;;5211812;22;20242;-90
2023/01/20 05:21:26;;;;;;;38.47;29.70;;;0.20;99.90;;;;;;5226181;22;20095;-91
2023/01/20 05:23:46;;;;;;;149.77;34.25;;;0.10;99.90;;;;;;5209090;22;20070;-90
2023/01/20 05:26:06;;;;;;;128.38;37.38;;;0.10;99.90;;;;;;5216217;22;20038;-90
2023/01/20 05:28:26;;;;;;;33.97;31.52;;;0.00;99.90;;;;;;5197228;22;20334;-90
2023/01/20 05:30:47;;;;;;;319.15;49.80;;;0.00;99.90;;;;;;5205834;22;20087;-90
2023/01/20 05:33:07;;;;;;;217.73;44.67;;;0.00;99.90;;;;;;5219501;22;20072;-90
2023/01/20 05:35:27;;;;;;;251.20;46.90;;;-0.20;99.90;;;;;;5234313;22;20061;-89
2023/01/20 05:37:47;;;;;;;42.90;36.95;;;-0.30;99.90;;;;;;5223979;22;20333;-90
2023/01/20 05:40:08;;;;;;;39.25;37.10;;;-0.30;99.90;;;;;;5224023;22;20345;-89
2023/01/20 05:42:27;;;;;;;142.43;38.50;;;-0.20;99.90;;;;;;5209016;22;20023;-90
2023/01/20 05:44:47;;;;;;;59.35;39.42;;;-0.20;99.90;;;;;;5224864;22;20027;-90
2023/01/20 05:47:07;;;;;;;37.17;33.33;;;-0.20;99.90;;;;;;5224124;22;20130;-90
2023/01/20 05:49:27;;;;;;;55.05;37.40;;;-0.10;99.90;;;;;;5234566;22;20360;-89
2023/01/20 05:51:47;;;;;;;97.03;44.38;;;-0.10;99.90;;;;;;5205670;22;20329;-89
2023/01/20 05:54:07;;;;;;;76.18;36.80;;;-0.10;99.90;;;;;;5229244;22;20207;-90
2023/01/20 05:56:27;;;;;;;68.38;36.92;;;-0.10;99.90;;;;;;5225995;22;20281;-90
2023/01/20 05:58:47;;;;;;;130.00;39.72;;;-0.10;99.90;;;;;;5205590;22;20084;-90
2023/01/20 06:01:09;;;;;;;112.07;45.20;;;-0.10;99.90;;;;;;5227649;22;20325;-89
2023/01/20 06:03:29;;;;;;;134.98;43.95;;;-0.20;99.90;;;;;;5233889;22;20021;-90
2023/01/20 06:05:49;;;;;;;121.30;50.05;;;-0.20;99.90;;;;;;5221987;22;20321;-89
2023/01/20 06:08:09;;;;;;;102.50;44.17;;;-0.20;99.90;;;;;;5222307;22;20214;-90
2023/01/20 06:10:28;;;;;;;162.93;47.95;;;-0.20;99.90;;;;;;5210046;22;20046;-90
2023/01/20 06:12:58;;;;;;;46.63;34.15;;;-0.10;99.90;;;;;;5202760;22;20042;-90
2023/01/20 06:15:30;;;;;;;56.25;36.13;;;-0.10;99.90;;;;;;5213233;22;20037;-89
2023/01/20 06:17:51;;;;;;;73.35;38.00;;;-0.10;99.90;;;;;;5234998;22;20026;-90
2023/01/20 06:20:14;;;;;;;43.17;40.40;;;-0.10;99.90;;;;;;5225123;22;20032;-90
2023/01/20 06:22:41;;;;;;;43.28;39.75;;;-0.10;99.90;;;;;;5193659;22;20064;-94
2023/01/20 06:25:01;;;;;;;42.45;39.72;;;-0.10;99.90;;;;;;5229979;22;20021;-95
2023/01/20 06:27:28;;;;;;;40.13;37.63;;;-0.10;99.90;;;;;;5207602;22;20027;-94
2023/01/20 06:29:49;;;;;;;38.92;36.88;;;-0.10;99.90;;;;;;5216623;22;20073;-94
2023/01/20 06:32:12;;;;;;;40.45;37.28;;;-0.20;99.90;;;;;;5216032;22;20400;-93
2023/01/20 06:34:33;;;;;;;38.22;35.13;;;-0.20;99.90;;;;;;5228975;22;20206;-92
2023/01/20 06:36:53;;;;;;;37.72;35.42;;;-0.20;99.90;;;;;;5234271;22;20026;-93
2023/01/20 06:40:01;;;;;;;52.40;35.42;;;-0.10;99.90;;;;;;5212315;22;20051;-94
2023/01/20 06:42:22;;;;;;;52.47;38.72;;;-0.10;99.90;;;;;;5138923;23;20059;-93
2023/01/20 06:44:43;;;;;;;125.85;43.42;;;-0.10;99.90;;;;;;5128826;23;20075;-93
2023/01/20 06:47:03;;;;;;;137.10;43.63;;;-0.10;99.90;;;;;;5146939;23;20071;-94
2023/01/20 06:49:23;;;;;;;207.50;52.88;;;-0.10;99.90;;;;;;5137347;23;20023;-94
2023/01/20 06:51:43;;;;;;;100.18;45.40;;;-0.20;99.90;;;;;;5155312;23;20067;-94
2023/01/20 06:54:04;;;;;;;187.05;50.05;;;-0.10;99.90;;;;;;5128941;23;20165;-95
2023/01/20 06:56:24;;;;;;;50.63;45.95;;;-0.10;99.90;;;;;;5147086;23;20039;-94
2023/01/20 06:58:44;;;;;;;85.75;44.67;;;-0.10;99.90;;;;;;5128902;23;20415;-94
2023/01/20 07:01:08;;;;;;;43.53;39.88;;;-0.10;99.90;;;;;;5146767;23;20023;-94
2023/01/20 07:03:29;;;;;;;39.65;35.65;;;-0.10;99.90;;;;;;5137350;23;20032;-94
2023/01/20 07:05:59;;;;;;;38.90;35.80;;;0.00;99.90;;;;;;5133896;23;20055;-89
2023/01/20 07:08:19;;;;;;;41.50;38.50;;;-0.10;99.90;;;;;;5128606;23;20028;-90
2023/01/20 07:10:39;;;;;;;44.88;41.63;;;0.00;99.90;;;;;;5149735;23;20112;-90
2023/01/20 07:12:59;;;;;;;46.88;42.72;;;-0.10;99.90;;;;;;5149825;23;20112;-90
2023/01/20 07:15:19;;;;;;;61.03;49.05;;;-0.10;99.90;;;;;;5158214;23;20027;-90
2023/01/20 07:17:39;;;;;;;47.30;43.28;;;-0.10;99.90;;;;;;5157987;23;20135;-90
2023/01/20 07:19:59;;;;;;;41.33;37.97;;;-0.20;99.90;;;;;;5220583;22;20084;-90
2023/01/20 07:22:18;;;;;;;38.60;35.42;;;-0.10;99.90;;;;;;5208122;22;20130;-90
2023/01/20 07:24:38;;;;;;;40.42;37.40;;;-0.10;99.90;;;;;;5227340;22;20064;-90
2023/01/20 07:26:58;;;;;;;45.17;41.78;;;-0.10;99.90;;;;;;5225801;22;20222;-90
2023/01/20 07:29:18;;;;;;;45.92;42.22;;;-0.20;99.90;;;;;;5187732;22;20074;-90
2023/01/20 07:31:39;;;;;;;44.40;41.13;;;-0.10;99.90;;;;;;5233410;22;20040;-89
2023/01/20 07:33:59;;;;;;;40.75;37.50;;;0.00;99.90;;;;;;5188608;22;20222;-90
2023/01/20 07:36:19;;;;;;;43.22;39.53;;;0.00;99.90;;;;;;5233160;22;20337;-90
2023/01/20 07:38:39;;;;;;;46.42;42.53;;;-0.10;99.90;;;;;;5203824;22;20038;-90
2023/01/20 07:41:02;;;;;;;44.60;40.85;;;0.00;99.90;;;;;;5227806;22;20022;-90
2023/01/20 07:43:25;;;;;;;47.05;42.78;;;-0.10;99.90;;;;;;5184918;22;20361;-90
2023/01/20 07:45:44;;;;;;;42.92;39.88;;;0.00;99.90;;;;;;5209330;22;20095;-90
2023/01/20 07:48:06;;;;;;;46.88;43.08;;;-0.10;99.90;;;;;;5232959;22;20053;-90
2023/01/20 07:50:26;;;;;;;47.08;43.03;;;-0.10;99.90;;;;;;5235187;22;20025;-90
2023/01/20 07:52:46;;;;;;;53.55;48.53;;;0.00;99.90;;;;;;5224479;22;20333;-90
2023/01/20 07:55:05;;;;;;;44.00;40.38;;;0.10;99.90;;;;;;5224387;22;20026;-90
2023/01/20 07:57:28;;;;;;;40.10;37.05;;;0.20;99.90;;;;;;5224493;22;20023;-90
2023/01/20 07:59:48;;;;;;;;;;;0.20;99.90;;;;;;5208988;22;20058;-90
2023/01/20 08:02:09;;;;;;;31.20;28.60;;;0.30;99.90;;;;;;5216245;22;19926;-90
2023/01/20 08:04:28;;;;;;;33.13;30.52;;;0.30;99.90;;;;;;5226398;22;20116;-90
2023/01/20 08:06:49;;;;;;;36.00;32.92;;;0.30;99.90;;;;;;5226520;22;20066;-91
2023/01/20 08:09:11;;;;;;;29.02;26.35;;;0.40;99.90;;;;;;5204328;22;20350;-90
2023/01/20 08:11:31;;;;;;;43.65;35.38;;;0.40;99.90;;;;;;5221124;22;20087;-90
2023/01/20 08:13:51;;;;;;;16.65;15.57;;;0.40;99.90;;;;;;5210411;22;20435;-90
2023/01/20 08:16:14;;;;;;;16.80;15.65;;;0.50;99.90;;;;;;5233262;22;20074;-90
2023/01/20 08:18:35;;;;;;;20.92;18.80;;;0.50;99.90;;;;;;5227427;22;20030;-90
2023/01/20 08:20:54;;;;;;;14.95;14.00;;;0.60;99.90;;;;;;5222778;22;20070;-90
2023/01/20 08:23:14;;;;;;;20.58;19.02;;;0.70;99.90;;;;;;5231105;22;20057;-90
2023/01/20 08:25:35;;;;;;;26.02;22.85;;;0.80;99.90;;;;;;5179204;22;20067;-90
2023/01/20 08:27:55;;;;;;;24.58;22.35;;;0.90;99.90;;;;;;5210419;22;20130;-89
2023/01/20 08:30:15;;;;;;;24.83;22.33;;;0.90;99.90;;;;;;5202773;22;20072;-90
2023/01/20 08:32:35;;;;;;;25.23;23.15;;;0.90;99.90;;;;;;5231675;22;20092;-90
2023/01/20 08:34:55;;;;;;;27.23;24.80;;;0.90;99.90;;;;;;5232943;22;20091;-89
2023/01/20 08:37:15;;;;;;;24.75;22.17;;;0.90;99.90;;;;;;5232914;22;20225;-90
2023/01/20 08:39:36;;;;;;;22.15;20.23;;;0.90;99.90;;;;;;5234918;22;20026;-89
2023/01/20 08:41:56;;;;;;;21.88;19.95;;;0.80;99.90;;;;;;5225231;22;20030;-90
2023/01/20 08:44:19;;;;;;;22.05;20.10;;;0.80;99.90;;;;;;5209453;22;20025;-90
2023/01/20 08:46:39;;;;;;;23.52;21.20;;;1.00;99.90;;;;;;5214032;22;20151;-90
2023/01/20 08:49:01;;;;;;;22.38;20.52;;;1.00;99.90;;;;;;5212295;22;20038;-89
2023/01/20 08:51:27;;;;;;;23.85;21.63;;;1.00;99.90;;;;;;5224242;22;20042;-90
2023/01/20 08:53:48;;;;;;;22.83;20.48;;;1.00;99.90;;;;;;5224195;22;20245;-90
2023/01/20 08:56:09;;;;;;;25.05;22.55;;;1.10;99.90;;;;;;5226261;22;20035;-90
2023/01/20 08:58:29;;;;;;;44.42;31.42;;;1.10;99.90;;;;;;5206338;22;20022;-89
2023/01/20 09:00:49;;;;;;;24.75;22.33;;;1.10;99.90;;;;;;5218325;22;20026;-89
2023/01/20 09:03:11;;;;;;;30.45;27.20;;;1.10;99.90;;;;;;5205907;22;20023;-90
2023/01/20 09:05:30;;;;;;;34.55;31.58;;;1.10;99.90;;;;;;5205931;22;20376;-91
2023/01/20 09:07:50;;;;;;;38.92;35.88;;;1.20;99.90;;;;;;5204331;22;20022;-89
2023/01/20 09:10:10;;;;;;;35.00;32.58;;;1.20;99.90;;;;;;5200786;22;20265;-90
2023/01/20 09:12:30;;;;;;;18.83;17.33;;;1.20;99.90;;;;;;5224726;22;20021;-89
2023/01/20 09:14:50;;;;;;;18.35;16.75;;;1.30;99.90;;;;;;5209158;22;20051;-89
2023/01/20 09:17:10;;;;;;;20.45;18.85;;;1.30;99.90;;;;;;5235631;22;20249;-89
2023/01/20 09:19:30;;;;;;;19.95;18.00;;;1.50;99.90;;;;;;5235029;22;20023;-90
2023/01/20 09:21:50;;;;;;;25.10;22.83;;;1.60;99.90;;;;;;5179147;22;20031;-90
2023/01/20 09:24:10;;;;;;;24.15;22.00;;;1.70;99.90;;;;;;5201681;22;20336;-89
2023/01/20 09:26:37;;;;;;;21.70;19.67;;;1.80;99.90;;;;;;5202353;22;20026;-89
2023/01/20 09:28:57;;;;;;;21.35;19.40;;;1.70;99.90;;;;;;5224017;22;20038;-90
2023/01/20 09:31:18;;;;;;;22.30;20.40;;;1.60;99.90;;;;;;5205901;22;20018;-89
2023/01/20 09:33:39;;;;;;;21.08;19.25;;;1.70;99.90;;;;;;5215548;22;20026;-90
2023/01/20 09:35:59;;;;;;;23.02;20.88;;;1.70;99.90;;;;;;5234787;22;20022;-90
2023/01/20 09:44:09;;;;;;;19.75;18.13;;;1.90;99.90;;;;;;5232693;22;20026;-91
2023/01/20 09:55:56;;;;;;;14.32;13.40;;;2.20;99.90;;;;;;5174211;23;20111;-91
2023/01/20 09:58:43;;;;;;;19.48;17.92;;;2.40;99.90;;;;;;5182712;23;20027;-91
2023/01/20 10:01:07;;;;;;;15.73;14.80;;;2.30;99.90;;;;;;5174264;23;20027;-91
2023/01/20 10:03:37;;;;;;;17.83;16.20;;;2.40;99.90;;;;;;5152990;23;20239;-90
2023/01/20 10:05:58;;;;;;;15.70;14.63;;;2.40;99.90;;;;;;5174345;23;20111;-90
2023/01/20 10:08:34;;;;;;;14.10;13.38;;;2.50;99.90;;;;;;5174473;23;20361;-91
2023/01/20 10:11:03;;;;;;;15.63;14.10;;;2.50;99.90;;;;;;5174323;23;20058;-91
2023/01/20 10:13:57;;;;;;;12.90;12.05;;;2.60;99.90;;;;;;5152976;23;20037;-91
2023/01/20 10:16:28;;;;;;;16.48;15.43;;;2.70;99.90;;;;;;5174410;23;20050;-91
2023/01/20 10:18:58;;;;;;;15.75;14.55;;;2.90;99.90;;;;;;5174242;23;20239;-90
2023/01/20 10:21:54;;;;;;;16.42;15.02;;;2.90;99.90;;;;;;5174312;23;20377;-90
2023/01/20 10:24:29;;;;;;;14.25;13.13;;;3.10;99.90;;;;;;5103153;23;20114;-90
2023/01/20 10:27:05;;;;;;;13.45;12.77;;;3.10;99.90;;;;;;5142305;23;20100;-89
2023/01/20 10:29:54;;;;;;;15.50;14.52;;;3.10;99.90;;;;;;5149131;23;20059;-89
2023/01/20 10:32:31;;;;;;;13.38;12.68;;;3.20;99.90;;;;;;5127922;23;20068;-90
2023/01/20 10:34:53;;;;;;;14.90;13.95;;;3.10;99.90;;;;;;5136232;23;20024;-90
2023/01/20 10:37:16;;;;;;;11.98;11.38;;;3.10;99.90;;;;;;5136655;23;20052;-89
2023/01/20 10:39:49;;;;;;;12.73;12.23;;;3.10;99.90;;;;;;5136057;23;20216;-90
2023/01/20 10:42:14;;;;;;;10.23;9.93;;;3.10;99.90;;;;;;5127833;23;20189;-90
2023/01/20 10:44:34;;;;;;;12.25;11.65;;;3.10;99.90;;;;;;5157421;23;20084;-90
2023/01/20 10:46:57;;;;;;;13.13;12.48;;;3.10;99.90;;;;;;5135966;23;20024;-90
2023/01/20 10:49:20;;;;;;;17.92;16.63;;;3.10;99.90;;;;;;5136079;23;20023;-90
2023/01/20 10:52:03;;;;;;;12.32;11.93;;;3.20;99.90;;;;;;5157369;23;20117;-90
2023/01/20 10:54:53;;;;;;;11.32;10.90;;;3.20;99.90;;;;;;5136108;23;20087;-90
2023/01/20 10:57:14;;;;;;;12.43;11.75;;;3.20;99.90;;;;;;5136127;23;20362;-90
2023/01/20 10:59:42;;;;;;;10.95;10.48;;;3.30;99.90;;;;;;5140012;22;20275;-90
2023/01/20 11:02:25;;;;;;;10.30;9.98;;;3.40;99.90;;;;;;5208391;22;20023;-90
2023/01/20 11:04:59;;;;;;;13.23;12.48;;;3.40;99.90;;;;;;5192379;22;20462;-90
2023/01/20 11:07:19;;;;;;;11.73;11.32;;;3.40;99.90;;;;;;5208493;22;20071;-91
2023/01/20 11:09:41;;;;;;;11.35;10.68;;;3.30;99.90;;;;;;5207562;22;20083;-90
2023/01/20 11:12:05;;;;;;;11.43;10.95;;;3.30;99.90;;;;;;5208463;22;20218;-91
2023/01/20 11:14:25;;;;;;;12.10;11.40;;;3.30;99.90;;;;;;5186877;22;20059;-91
2023/01/20 11:16:51;;;;;;;15.93;14.82;;;3.30;99.90;;;;;;5178666;22;20035;-91
2023/01/20 11:19:11;;;;;;;20.15;18.15;;;3.20;99.90;;;;;;5230794;22;20023;-91
2023/01/20 11:21:35;;;;;;;15.05;14.15;;;3.20;99.90;;;;;;5212296;22;20058;-91
2023/01/20 11:23:56;;;;;;;30.08;23.65;;;3.20;99.90;;;;;;5225302;22;20060;-91
2023/01/20 11:26:20;;;;;;;22.58;20.27;;;3.30;99.90;;;;;;5216321;22;20210;-91
2023/01/20 11:28:51;;;;;;;48.72;31.13;;;3.30;99.90;;;;;;5231996;22;20023;-91
2023/01/20 11:31:11;;;;;;;16.58;15.43;;;3.40;99.90;;;;;;5223293;22;20061;-91
2023/01/20 11:33:31;;;;;;;13.27;12.65;;;3.40;99.90;;;;;;5217384;22;20032;-91
2023/01/20 11:36:17;;;;;;;15.45;14.65;;;3.30;99.90;;;;;;5215374;22;20034;-92
2023/01/20 11:38:45;;;;;;;13.25;12.55;;;3.40;99.90;;;;;;5200929;22;20023;-91
2023/01/20 11:41:26;;;;;;;20.85;19.05;;;3.40;99.90;;;;;;5209560;22;20026;-91
2023/01/20 11:43:48;;;;;;;16.73;15.43;;;3.40;99.90;;;;;;5188323;22;20023;-92
2023/01/20 11:46:15;;;;;;;16.52;15.32;;;3.40;99.90;;;;;;5226503;22;20085;-91
2023/01/20 11:48:35;;;;;;;11.70;11.20;;;3.40;99.90;;;;;;5206322;22;20030;-91
2023/01/20 11:51:00;;;;;;;12.80;12.35;;;3.50;99.90;;;;;;5204801;22;20073;-92
2023/01/20 11:53:26;;;;;;;10.13;9.85;;;3.50;99.90;;;;;;5224279;22;20022;-92
2023/01/20 11:56:13;;;;;;;10.75;9.95;;;3.50;99.90;;;;;;5210696;22;20041;-93
2023/01/20 11:59:02;;;;;;;13.27;12.30;;;3.50;99.90;;;;;;5206369;22;20268;-92
2023/01/20 12:01:27;;;;;;;13.45;12.63;;;3.40;99.90;;;;;;5187717;22;20030;-92
2023/01/20 12:04:09;;;;;;;14.38;13.57;;;3.40;99.90;;;;;;5187909;22;20030;-92
2023/01/20 12:06:40;;;;;;;12.55;12.10;;;3.40;99.90;;;;;;5190998;22;20027;-92
2023/01/20 12:09:09;;;;;;;13.05;12.32;;;3.40;99.90;;;;;;5209377;22;20034;-91
2023/01/20 12:11:41;;;;;;;13.15;12.63;;;3.40;99.90;;;;;;5209348;22;20058;-92
2023/01/20 12:14:23;;;;;;;10.20;9.97;;;3.40;99.90;;;;;;5200135;22;20286;-93
2023/01/20 12:16:48;;;;;;;11.85;10.82;;;3.50;99.90;;;;;;5206522;22;20127;-93
2023/01/20 12:19:16;;;;;;;12.52;12.02;;;3.40;99.90;;;;;;5210797;22;20023;-92
2023/01/20 12:21:42;;;;;;;11.10;10.57;;;3.50;99.90;;;;;;5234409;22;20244;-92
2023/01/20 12:25:06;;;;;;;9.85;9.60;;;3.50;99.90;;;;;;5235815;22;20324;-93
2023/01/20 12:27:22;;;;;;;9.07;8.88;;;3.50;99.90;;;;;;5211376;22;20049;-93
2023/01/20 12:29:44;;;;;;;10.10;9.80;;;3.50;99.90;;;;;;5224308;22;20072;-92
2023/01/20 12:32:04;;;;;;;12.00;11.57;;;3.40;99.90;;;;;;5218173;22;20023;-92
2023/01/20 12:34:29;;;;;;;16.00;14.85;;;3.50;99.90;;;;;;5223931;22;20049;-91
2023/01/20 12:37:15;;;;;;;11.85;11.07;;;3.60;99.90;;;;;;5209317;22;20054;-92